createdAt,value
2023-03-17T00:00:53.575Z,2.58
2023-03-17T00:03:55.294Z,2.27
2023-03-17T00:06:58.026Z,2.72
2023-03-17T00:09:59.690Z,2.70
2023-03-17T00:13:01.302Z,3.08
2023-03-17T00:16:04.945Z,2.90
2023-03-17T00:19:06.712Z,2.80
2023-03-17T00:22:17.821Z,2.88
2023-03-17T00:25:25.139Z,3.10
2023-03-17T00:28:27.875Z,3.15
2023-03-17T00:31:29.818Z,3.40
2023-03-17T00:34:31.551Z,3.00
2023-03-17T00:37:33.208Z,3.10
2023-03-17T00:40:34.787Z,3.20
2023-03-17T00:43:36.887Z,3.22
2023-03-17T00:46:39.462Z,3.42
2023-03-17T00:49:41.232Z,3.23
2023-03-17T00:52:44.766Z,3.05
2023-03-17T00:55:46.750Z,3.40
2023-03-17T00:58:49.228Z,3.03
2023-03-17T01:01:51.151Z,2.97
2023-03-17T01:05:05.560Z,3.20
2023-03-17T01:08:09.226Z,3.15
2023-03-17T01:11:16.224Z,2.90
2023-03-17T01:14:17.960Z,2.95
2023-03-17T01:17:19.713Z,2.72
2023-03-17T01:20:24.734Z,2.90
2023-03-17T01:23:26.409Z,3.20
2023-03-17T01:26:27.982Z,2.97
2023-03-17T01:29:29.557Z,2.72
2023-03-17T01:32:31.187Z,3.00
2023-03-17T01:35:33.300Z,2.80
2023-03-17T01:38:35.911Z,2.92
2023-03-17T01:41:37.651Z,3.22
2023-03-17T01:45:08.739Z,3.33
2023-03-17T01:48:10.389Z,3.00
2023-03-17T01:51:18.709Z,3.00
2023-03-17T01:54:27.116Z,3.00
2023-03-17T01:57:33.457Z,3.20
2023-03-17T02:00:35.150Z,3.25
2023-03-17T02:03:36.766Z,3.20
2023-03-17T02:06:55.100Z,3.10
2023-03-17T02:10:00.163Z,2.90
2023-03-17T02:13:05.573Z,3.08
2023-03-17T02:16:07.564Z,2.83
2023-03-17T02:19:09.607Z,2.90
2023-03-17T02:22:11.491Z,2.80
2023-03-17T02:25:14.093Z,2.92
2023-03-17T02:28:21.532Z,2.97
2023-03-17T02:31:26.392Z,3.28
2023-03-17T02:34:28.002Z,3.10
2023-03-17T02:37:29.934Z,3.00
2023-03-17T02:40:32.067Z,2.95
2023-03-17T02:43:33.946Z,3.03
2023-03-17T02:46:35.829Z,3.15
2023-03-17T02:49:40.314Z,2.72
2023-03-17T02:52:41.991Z,3.17
2023-03-17T02:55:43.759Z,2.95
2023-03-17T02:58:45.476Z,3.00
2023-03-17T03:01:48.633Z,2.90
2023-03-17T03:04:50.523Z,3.03
2023-03-17T03:07:52.351Z,2.80
2023-03-17T03:10:54.972Z,3.13
2023-03-17T03:13:57.025Z,2.80
2023-03-17T03:16:58.645Z,3.20
2023-03-17T03:20:02.270Z,2.75
2023-03-17T03:23:04.434Z,2.70
2023-03-17T03:26:06.123Z,2.85
2023-03-17T03:29:08.020Z,2.78
2023-03-17T03:32:09.911Z,2.67
2023-03-17T03:35:11.565Z,2.70
2023-03-17T03:38:13.819Z,2.73
2023-03-17T03:41:15.491Z,3.05
2023-03-17T03:44:17.089Z,2.90
2023-03-17T03:47:18.759Z,3.08
2023-03-17T03:50:20.392Z,2.72
2023-03-17T03:53:21.997Z,2.83
2023-03-17T03:56:23.656Z,2.90
2023-03-17T03:59:25.563Z,3.10
2023-03-17T04:02:27.537Z,3.05
2023-03-17T04:05:29.149Z,2.47
2023-03-17T04:08:31.813Z,2.97
2023-03-17T04:11:33.490Z,2.72
2023-03-17T04:14:35.176Z,3.10
2023-03-17T04:17:37.041Z,2.75
2023-03-17T04:20:38.895Z,2.95
2023-03-17T04:23:40.577Z,2.73
2023-03-17T04:26:42.307Z,2.88
2023-03-17T04:29:44.107Z,3.17
2023-03-17T04:32:46.483Z,3.20
2023-03-17T04:35:48.272Z,3.00
2023-03-17T04:38:50.028Z,2.90
2023-03-17T04:41:51.659Z,3.10
2023-03-17T04:44:53.254Z,3.00
2023-03-17T04:47:54.872Z,2.70
2023-03-17T04:50:56.483Z,3.13
2023-03-17T04:53:58.087Z,2.87
2023-03-17T04:56:59.723Z,2.90
2023-03-17T05:00:01.543Z,3.30
2023-03-17T05:03:04.355Z,3.00
2023-03-17T05:06:07.480Z,3.50
2023-03-17T05:09:10.010Z,3.20
2023-03-17T05:12:13.093Z,3.20
2023-03-17T05:15:14.862Z,3.00
2023-03-17T05:18:17.496Z,3.65
2023-03-17T05:21:19.144Z,3.15
2023-03-17T05:24:21.013Z,3.30
2023-03-17T05:27:23.348Z,3.38
2023-03-17T05:30:28.313Z,3.33
2023-03-17T05:33:30.117Z,3.50
2023-03-17T05:36:32.171Z,3.10
2023-03-17T05:39:33.812Z,3.00
2023-03-17T05:42:35.659Z,3.22
2023-03-17T05:45:37.760Z,3.20
2023-03-17T05:48:39.474Z,3.33
2023-03-17T05:51:41.988Z,3.60
2023-03-17T05:54:44.778Z,3.33
2023-03-17T05:57:47.114Z,3.47
2023-03-17T06:00:48.702Z,4.00
2023-03-17T06:03:50.402Z,3.67
2023-03-17T06:06:52.042Z,3.83
2023-03-17T06:09:53.870Z,4.10
2023-03-17T06:12:55.666Z,4.47
2023-03-17T06:15:57.757Z,4.53
2023-03-17T06:18:59.443Z,4.90
2023-03-17T06:22:01.488Z,4.05
2023-03-17T06:25:03.100Z,4.03
2023-03-17T06:28:05.703Z,4.32
2023-03-17T06:31:08.931Z,4.40
2023-03-17T06:34:10.583Z,4.22
2023-03-17T06:37:12.205Z,4.43
2023-03-17T06:40:14.669Z,4.37
2023-03-17T06:43:17.533Z,4.50
2023-03-17T06:46:19.318Z,5.05
2023-03-17T06:49:21.089Z,5.00
2023-03-17T06:52:24.280Z,4.72
2023-03-17T06:55:25.986Z,4.90
2023-03-17T06:58:27.632Z,5.03
2023-03-17T07:01:29.368Z,5.25
2023-03-17T07:04:32.123Z,4.90
2023-03-17T07:07:35.755Z,4.63
2023-03-17T07:10:37.598Z,4.60
2023-03-17T07:13:39.918Z,4.70
2023-03-17T07:16:41.535Z,4.63
2023-03-17T07:19:43.683Z,5.03
2023-03-17T07:22:46.545Z,4.85
2023-03-17T07:25:48.285Z,5.07
2023-03-17T07:28:50.183Z,4.63
2023-03-17T07:31:51.885Z,4.55
2023-03-17T07:34:54.668Z,4.60
2023-03-17T07:37:56.295Z,4.53
2023-03-17T07:40:58.058Z,4.33
2023-03-17T07:43:59.704Z,4.35
2023-03-17T07:47:01.467Z,4.10
2023-03-17T07:50:03.432Z,4.20
2023-03-17T07:53:05.262Z,4.55
2023-03-17T07:56:07.539Z,4.30
2023-03-17T07:59:10.926Z,4.60
2023-03-17T08:02:17.391Z,4.93
2023-03-17T08:05:19.555Z,4.72
2023-03-17T08:08:22.485Z,4.80
2023-03-17T08:11:24.228Z,4.87
2023-03-17T08:14:27.195Z,4.65
2023-03-17T08:17:28.913Z,4.70
2023-03-17T08:20:30.860Z,4.80
2023-03-17T08:23:33.357Z,6.72
2023-03-17T08:26:35.049Z,7.50
2023-03-17T08:29:36.697Z,4.07
2023-03-17T08:32:38.670Z,4.00
2023-03-17T08:35:43.803Z,4.90
2023-03-17T08:38:47.374Z,5.78
2023-03-17T08:41:51.624Z,4.53
2023-03-17T08:44:53.246Z,4.60
2023-03-17T08:47:54.910Z,5.00
2023-03-17T08:50:57.152Z,4.82
2023-03-17T08:53:59.774Z,5.20
2023-03-17T08:57:01.968Z,4.90
2023-03-17T09:00:10.978Z,4.80
2023-03-17T09:03:13.701Z,4.80
2023-03-17T09:06:15.711Z,4.63
2023-03-17T09:09:18.026Z,4.90
2023-03-17T09:12:19.721Z,4.57
2023-03-17T09:15:22.046Z,4.13
2023-03-17T09:18:23.945Z,4.00
2023-03-17T09:21:25.580Z,3.78
2023-03-17T09:24:29.309Z,3.45
2023-03-17T09:27:32.991Z,3.63
2023-03-17T09:30:35.040Z,3.20
2023-03-17T09:33:37.641Z,3.30
2023-03-17T09:36:39.349Z,3.03
2023-03-17T09:39:41.710Z,3.30
2023-03-17T09:43:08.126Z,3.40
2023-03-17T09:46:25.199Z,3.20
2023-03-17T09:49:39.972Z,3.78
2023-03-17T09:52:43.183Z,3.50
2023-03-17T09:55:47.843Z,3.72
2023-03-17T09:59:04.722Z,3.30
2023-03-17T10:02:30.108Z,3.00
2023-03-17T10:05:36.086Z,3.38
2023-03-17T10:08:44.441Z,3.28
2023-03-17T10:11:54.595Z,3.25
2023-03-17T10:15:36.244Z,3.07
2023-03-17T10:18:47.911Z,2.80
2023-03-17T10:22:35.182Z,3.65
2023-03-17T10:25:37.454Z,3.00
2023-03-17T10:28:42.248Z,3.30
2023-03-17T10:31:44.856Z,3.50
2023-03-17T10:34:47.213Z,3.60
2023-03-17T10:37:49.033Z,3.30
2023-03-17T10:41:05.706Z,3.20
2023-03-17T10:44:22.322Z,3.80
2023-03-17T10:47:40.829Z,3.50
2023-03-17T10:50:42.421Z,3.35
2023-03-17T10:53:44.140Z,3.80
2023-03-17T10:56:54.673Z,3.63
2023-03-17T10:59:59.842Z,3.13
2023-03-17T11:03:18.558Z,3.20
2023-03-17T11:06:30.886Z,3.53
2023-03-17T11:09:36.282Z,3.47
2023-03-17T11:12:40.802Z,3.47
2023-03-17T11:16:02.201Z,3.22
2023-03-17T11:19:08.160Z,3.10
2023-03-17T11:22:20.984Z,3.20
2023-03-17T11:25:25.038Z,3.05
2023-03-17T11:28:37.192Z,3.17
2023-03-17T11:32:22.636Z,3.35
2023-03-17T11:35:38.372Z,3.00
2023-03-17T11:38:49.825Z,3.53
2023-03-17T11:42:07.036Z,3.35
2023-03-17T11:45:29.054Z,3.45
2023-03-17T11:48:51.465Z,3.42
2023-03-17T11:51:53.280Z,3.70
2023-03-17T11:55:17.653Z,3.83
2023-03-17T11:58:31.929Z,4.00
2023-03-17T12:02:03.852Z,3.78
2023-03-17T12:05:13.592Z,3.38
2023-03-17T12:08:24.632Z,3.80
2023-03-17T12:11:30.670Z,3.53
2023-03-17T12:14:46.484Z,3.88
2023-03-17T12:18:06.059Z,3.63
2023-03-17T12:21:32.967Z,3.75
2023-03-17T12:25:13.017Z,3.60
2023-03-17T12:28:17.709Z,3.53
2023-03-17T12:31:33.263Z,3.45
2023-03-17T12:34:57.368Z,3.72
2023-03-17T12:38:12.699Z,3.20
2023-03-17T12:41:20.881Z,3.30
2023-03-17T12:44:41.398Z,3.53
2023-03-17T12:47:52.247Z,3.10
2023-03-17T12:51:21.883Z,3.25
2023-03-17T12:54:33.664Z,3.40
2023-03-17T12:57:45.924Z,3.30
2023-03-17T13:00:50.705Z,3.33
2023-03-17T13:04:21.946Z,3.80
2023-03-17T13:07:27.869Z,3.53
2023-03-17T13:10:37.473Z,3.42
2023-03-17T13:13:46.694Z,3.30
2023-03-17T13:16:49.191Z,3.42
2023-03-17T13:20:16.474Z,3.42
2023-03-17T13:23:23.382Z,3.33
2023-03-17T13:27:01.811Z,3.38
2023-03-17T13:30:26.919Z,3.10
2023-03-17T13:33:32.586Z,3.42
2023-03-17T13:36:39.892Z,3.42
2023-03-17T13:39:48.006Z,3.40
2023-03-17T13:43:11.603Z,3.28
2023-03-17T13:46:25.512Z,3.57
2023-03-17T13:49:32.328Z,4.10
2023-03-17T13:52:43.290Z,3.35
2023-03-17T13:56:09.351Z,3.70
2023-03-17T13:59:22.001Z,3.40
2023-03-17T14:02:26.258Z,3.20
2023-03-17T14:05:31.693Z,3.25
2023-03-17T14:08:36.855Z,3.40
2023-03-17T14:11:40.181Z,3.30
2023-03-17T14:15:08.051Z,3.60
2023-03-17T14:18:16.459Z,3.17
2023-03-17T14:21:24.405Z,3.50
2023-03-17T14:24:33.492Z,3.58
2023-03-17T14:27:35.505Z,3.40
2023-03-17T14:30:37.269Z,3.50
2023-03-17T14:33:41.119Z,3.70
2023-03-17T14:36:43.523Z,3.60
2023-03-17T14:39:48.140Z,3.50
2023-03-17T14:42:50.000Z,3.50
2023-03-17T14:45:52.800Z,3.30
2023-03-17T14:49:16.157Z,3.50
2023-03-17T14:52:21.155Z,3.22
2023-03-17T14:55:35.776Z,3.30
2023-03-17T14:58:42.543Z,3.13
2023-03-17T15:01:47.881Z,3.53
2023-03-17T15:05:12.326Z,3.53
2023-03-17T15:08:38.105Z,3.35
2023-03-17T15:11:44.753Z,3.70
2023-03-17T15:14:47.177Z,3.47
2023-03-17T15:17:54.304Z,3.67
2023-03-17T15:20:56.506Z,3.40
2023-03-17T15:23:58.333Z,3.75
2023-03-17T15:27:02.408Z,3.75
2023-03-17T15:30:04.517Z,3.53
2023-03-17T15:33:16.899Z,3.58
2023-03-17T15:36:31.820Z,4.00
2023-03-17T15:39:34.539Z,3.70
2023-03-17T15:42:39.479Z,3.75
2023-03-17T15:45:43.997Z,3.75
2023-03-17T15:48:46.744Z,3.72
2023-03-17T15:51:48.446Z,3.47
2023-03-17T15:54:50.333Z,4.05
2023-03-17T15:57:55.062Z,3.90
2023-03-17T16:00:57.915Z,3.55
2023-03-17T16:03:59.554Z,3.40
2023-03-17T16:07:01.537Z,3.50
2023-03-17T16:10:27.836Z,3.63
2023-03-17T16:13:29.702Z,3.25
2023-03-17T16:16:37.315Z,3.42
2023-03-17T16:19:38.968Z,3.80
2023-03-17T16:22:43.321Z,3.27
2023-03-17T16:25:46.208Z,3.78
2023-03-17T16:28:49.187Z,3.63
2023-03-17T16:31:51.245Z,3.50
2023-03-17T16:34:52.886Z,3.40
2023-03-17T16:37:54.841Z,3.70
2023-03-17T16:41:06.997Z,3.53
2023-03-17T16:44:11.704Z,3.50
2023-03-17T16:47:13.387Z,3.80
2023-03-17T16:50:17.309Z,3.45
2023-03-17T16:53:18.908Z,3.57
2023-03-17T16:56:22.953Z,3.50
2023-03-17T16:59:29.669Z,4.05
2023-03-17T17:02:31.744Z,3.47
2023-03-17T17:05:33.487Z,3.70
2023-03-17T17:08:35.327Z,3.67
2023-03-17T17:11:36.936Z,3.75
2023-03-17T17:14:38.676Z,3.55
2023-03-17T17:17:44.099Z,3.70
2023-03-17T17:20:46.404Z,5.70
2023-03-17T17:23:48.240Z,4.80
2023-03-17T17:26:49.893Z,4.75
2023-03-17T17:29:51.734Z,5.00
2023-03-17T17:32:54.491Z,4.45
2023-03-17T17:35:56.350Z,4.15
2023-03-17T17:38:58.089Z,3.77
2023-03-17T17:41:59.685Z,3.83
2023-03-17T17:45:01.487Z,3.72
2023-03-17T17:48:03.204Z,3.60
2023-03-17T17:51:05.267Z,3.60
2023-03-17T17:54:06.945Z,3.40
2023-03-17T17:57:08.554Z,3.42
2023-03-17T18:00:14.460Z,3.70
2023-03-17T18:03:16.315Z,3.75
2023-03-17T18:06:18.325Z,3.67
2023-03-17T18:09:20.076Z,3.90
2023-03-17T18:12:22.040Z,3.90
2023-03-17T18:15:25.359Z,4.20
2023-03-17T18:18:27.289Z,3.92
2023-03-17T18:21:29.242Z,4.50
2023-03-17T18:24:31.228Z,4.00
2023-03-17T18:27:32.869Z,4.10
2023-03-17T18:30:35.281Z,4.40
2023-03-17T18:33:38.042Z,4.40
2023-03-17T18:36:40.294Z,4.40
2023-03-17T18:39:42.685Z,4.47
2023-03-17T18:42:44.382Z,4.60
2023-03-17T18:45:46.113Z,4.50
2023-03-17T18:48:47.865Z,4.65
2023-03-17T18:51:49.578Z,4.63
2023-03-17T18:54:51.427Z,4.60
2023-03-17T18:57:54.872Z,5.03
2023-03-17T19:01:01.018Z,4.88
2023-03-17T19:04:04.713Z,4.80
2023-03-17T19:07:06.350Z,5.07
2023-03-17T19:10:12.790Z,5.00
2023-03-17T19:13:15.275Z,4.53
2023-03-17T19:16:17.669Z,4.93
2023-03-17T19:19:19.271Z,5.05
2023-03-17T19:22:21.195Z,4.93
2023-03-17T19:25:23.497Z,5.00
2023-03-17T19:28:25.282Z,4.70
2023-03-17T19:31:27.114Z,5.43
2023-03-17T19:34:28.899Z,5.18
2023-03-17T19:37:32.179Z,5.43
2023-03-17T19:40:39.988Z,5.07
2023-03-17T19:43:44.427Z,5.45
2023-03-17T19:46:46.077Z,5.65
2023-03-17T19:49:48.242Z,5.10
2023-03-17T19:52:53.002Z,5.43
2023-03-17T19:55:56.756Z,5.03
2023-03-17T19:58:58.572Z,5.43
2023-03-17T20:02:00.591Z,5.55
2023-03-17T20:05:02.290Z,5.43
2023-03-17T20:08:06.548Z,5.43
2023-03-17T20:11:09.072Z,5.33
2023-03-17T20:14:10.793Z,5.18
2023-03-17T20:17:14.179Z,5.72
2023-03-17T20:20:15.983Z,5.88
2023-03-17T20:23:18.130Z,6.05
2023-03-17T20:26:20.022Z,6.60
2023-03-17T20:29:21.646Z,6.05
2023-03-17T20:32:23.485Z,6.40
2023-03-17T20:35:27.397Z,6.53
2023-03-17T20:38:31.027Z,6.13
2023-03-17T20:41:32.677Z,6.47
2023-03-17T20:44:34.269Z,6.40
2023-03-17T20:47:36.306Z,6.13
2023-03-17T20:50:39.008Z,6.20
2023-03-17T20:53:40.605Z,6.45
2023-03-17T20:56:42.399Z,6.37
2023-03-17T20:59:45.190Z,6.40
2023-03-17T21:02:50.850Z,7.18
2023-03-17T21:05:53.459Z,6.60
2023-03-17T21:08:55.598Z,6.95
2023-03-17T21:11:57.206Z,6.77
2023-03-17T21:14:59.484Z,6.55
2023-03-17T21:18:01.162Z,6.85
2023-03-17T21:21:02.831Z,6.90
2023-03-17T21:24:05.587Z,6.90
2023-03-17T21:27:11.993Z,6.77
2023-03-17T21:30:14.552Z,6.45
2023-03-17T21:33:16.311Z,6.55
2023-03-17T21:36:18.014Z,7.20
2023-03-17T21:39:20.041Z,6.70
2023-03-17T21:42:21.661Z,6.53
2023-03-17T21:45:23.480Z,6.70
2023-03-17T21:48:25.110Z,7.00
2023-03-17T21:51:27.387Z,6.90
2023-03-17T21:54:30.412Z,7.65
2023-03-17T21:57:32.030Z,7.20
2023-03-17T22:00:44.817Z,7.18
2023-03-17T22:03:48.592Z,7.15
2023-03-17T22:06:51.876Z,6.90
2023-03-17T22:09:54.225Z,7.07
2023-03-17T22:12:56.082Z,6.80
2023-03-17T22:16:01.302Z,7.32
2023-03-17T22:19:03.561Z,7.38
2023-03-17T22:22:05.268Z,6.82
2023-03-17T22:25:07.241Z,6.85
2023-03-17T22:28:09.462Z,6.70
2023-03-17T22:31:21.800Z,6.68
2023-03-17T22:34:24.212Z,6.90
2023-03-17T22:37:25.859Z,6.97
2023-03-17T22:40:27.486Z,6.72
2023-03-17T22:43:29.163Z,6.37
2023-03-17T22:46:30.862Z,6.60
2023-03-17T22:49:32.637Z,7.00
2023-03-17T22:52:34.786Z,6.60
2023-03-17T22:55:36.473Z,6.63
2023-03-17T22:58:38.370Z,6.53
2023-03-17T23:01:40.351Z,6.72
2023-03-17T23:04:42.320Z,6.50
2023-03-17T23:07:51.777Z,6.20
2023-03-17T23:10:54.045Z,6.30
2023-03-17T23:13:55.762Z,6.17
2023-03-17T23:16:57.512Z,6.50
2023-03-17T23:19:59.372Z,6.43
2023-03-17T23:23:01.446Z,5.93
2023-03-17T23:26:03.139Z,6.18
2023-03-17T23:29:07.074Z,6.60
2023-03-17T23:32:12.370Z,6.30
2023-03-17T23:35:14.226Z,6.57
2023-03-17T23:38:19.611Z,6.30
2023-03-17T23:41:21.642Z,6.45
2023-03-17T23:44:23.538Z,6.70
2023-03-17T23:47:26.484Z,6.32
2023-03-17T23:50:28.075Z,6.53
2023-03-17T23:53:30.024Z,6.80
2023-03-17T23:56:32.438Z,6.38
2023-03-17T23:59:34.925Z,6.70
